createdAt,value
2019-04-14T00:02:01.647Z,24.07
2019-04-14T00:04:48.714Z,20.20
2019-04-14T00:07:16.592Z,20.93
2019-04-14T00:09:45.289Z,18.40
2019-04-14T00:12:12.814Z,25.80
2019-04-14T00:14:40.337Z,23.10
2019-04-14T00:17:07.112Z,21.80
2019-04-14T00:19:34.893Z,26.13
2019-04-14T00:22:03.082Z,19.00
2019-04-14T00:24:29.925Z,23.40
2019-04-14T00:26:57.319Z,21.13
2019-04-14T00:29:24.053Z,23.50
2019-04-14T00:31:52.266Z,19.60
2019-04-14T00:34:42.028Z,20.90
2019-04-14T00:37:25.831Z,24.80
2019-04-14T00:39:55.860Z,27.30
2019-04-14T00:42:34.220Z,25.67
2019-04-14T00:45:09.130Z,28.10
2019-04-14T00:47:52.520Z,25.90
2019-04-14T00:50:12.438Z,21.07
2019-04-14T00:52:39.479Z,22.20
2019-04-14T00:55:07.454Z,24.77
2019-04-14T00:57:35.312Z,24.83
2019-04-14T01:00:03.861Z,25.10
2019-04-14T01:02:31.772Z,21.47
2019-04-14T01:04:58.679Z,26.10
2019-04-14T01:07:26.207Z,28.57
2019-04-14T01:09:53.175Z,21.80
2019-04-14T01:12:19.913Z,21.43
2019-04-14T01:14:47.411Z,21.00
2019-04-14T01:17:15.425Z,26.03
2019-04-14T01:19:42.159Z,24.60
2019-04-14T01:22:09.523Z,23.17
2019-04-14T01:24:36.180Z,26.87
2019-04-14T01:27:03.943Z,25.27
2019-04-14T01:29:32.004Z,25.70
2019-04-14T01:31:58.732Z,26.87
2019-04-14T01:34:26.035Z,22.70
2019-04-14T01:36:53.933Z,32.60
2019-04-14T01:39:22.073Z,24.50
2019-04-14T01:41:49.879Z,25.50
2019-04-14T01:44:17.711Z,23.80
2019-04-14T01:46:45.573Z,26.07
2019-04-14T01:49:13.594Z,26.87
2019-04-14T01:52:03.596Z,24.07
2019-04-14T01:54:47.325Z,25.93
2019-04-14T01:57:32.807Z,22.80
2019-04-14T02:00:20.632Z,26.83
2019-04-14T02:02:48.696Z,24.50
2019-04-14T02:05:16.789Z,22.33
2019-04-14T02:07:43.580Z,26.50
2019-04-14T02:10:10.728Z,21.93
2019-04-14T02:12:38.705Z,23.60
2019-04-14T02:15:06.985Z,26.33
2019-04-14T02:17:34.943Z,26.30
2019-04-14T02:20:01.700Z,24.60
2019-04-14T02:22:29.118Z,27.93
2019-04-14T02:24:56.996Z,25.60
2019-04-14T02:27:23.789Z,25.20
2019-04-14T02:29:51.626Z,26.47
2019-04-14T02:35:20.955Z,27.73
2019-04-14T02:37:43.308Z,27.70
2019-04-14T02:40:08.170Z,24.17
2019-04-14T02:42:40.316Z,25.77
2019-04-14T02:45:12.311Z,21.87
2019-04-14T02:50:05.452Z,22.60
2019-04-14T02:52:38.399Z,23.20
2019-04-14T02:54:59.874Z,23.60
2019-04-14T02:59:59.521Z,21.93
2019-04-14T03:02:30.361Z,23.10
2019-04-14T03:04:57.102Z,26.07
2019-04-14T03:09:58.589Z,21.63
2019-04-14T03:12:28.079Z,22.57
2019-04-14T03:14:55.593Z,22.23
2019-04-14T03:17:47.340Z,20.73
2019-04-14T03:20:30.204Z,22.97
2019-04-14T03:23:10.743Z,24.90
2019-04-14T03:25:49.601Z,27.63
2019-04-14T03:28:25.903Z,22.33
2019-04-14T03:38:54.911Z,23.40
2019-04-14T03:41:17.219Z,25.53
2019-04-14T03:43:36.949Z,22.70
2019-04-14T03:48:54.977Z,23.67
2019-04-14T03:51:08.441Z,22.40
2019-04-14T03:56:24.478Z,26.60
2019-04-14T03:58:51.271Z,24.43
2019-04-14T04:01:17.904Z,24.83
2019-04-14T04:03:45.690Z,24.80
2019-04-14T04:06:12.413Z,25.57
2019-04-14T04:08:39.850Z,25.87
2019-04-14T04:11:06.649Z,23.87
2019-04-14T04:13:34.453Z,25.57
2019-04-14T04:16:13.836Z,24.20
2019-04-14T04:18:50.872Z,25.73
2019-04-14T04:21:35.542Z,27.63
2019-04-14T04:24:12.782Z,25.00
2019-04-14T04:27:02.583Z,25.40
2019-04-14T04:29:39.788Z,26.07
2019-04-14T04:32:20.749Z,26.37
2019-04-14T04:35:10.755Z,25.40
2019-04-14T04:37:47.920Z,27.70
2019-04-14T04:40:23.219Z,29.43
2019-04-14T04:42:50.509Z,29.13
2019-04-14T04:45:17.227Z,27.10
2019-04-14T04:47:44.810Z,27.63
2019-04-14T04:50:12.786Z,26.90
2019-04-14T04:52:40.688Z,30.40
2019-04-14T04:55:08.786Z,26.37
2019-04-14T04:57:35.676Z,29.03
2019-04-14T05:00:03.042Z,24.80
2019-04-14T05:02:30.941Z,34.50
2019-04-14T05:04:57.696Z,30.27
2019-04-14T05:07:25.246Z,30.77
2019-04-14T05:10:15.307Z,28.40
2019-04-14T05:13:01.160Z,29.67
2019-04-14T05:15:42.924Z,35.73
2019-04-14T05:18:24.523Z,26.77
2019-04-14T05:20:51.552Z,29.40
2019-04-14T05:23:19.094Z,29.70
2019-04-14T05:25:47.248Z,24.70
2019-04-14T05:28:15.475Z,26.63
2019-04-14T05:30:43.538Z,27.77
2019-04-14T05:33:10.421Z,28.93
2019-04-14T05:35:38.024Z,31.00
2019-04-14T05:38:06.122Z,29.10
2019-04-14T05:40:34.229Z,27.50
2019-04-14T05:43:02.480Z,30.60
2019-04-14T05:45:30.548Z,26.47
2019-04-14T05:47:57.391Z,26.93
2019-04-14T05:50:24.894Z,27.60
2019-04-14T05:52:51.707Z,26.00
2019-04-14T05:55:18.396Z,23.73
2019-04-14T05:57:45.971Z,24.47
2019-04-14T06:00:16.737Z,28.23
2019-04-14T06:02:44.127Z,25.60
2019-04-14T06:05:12.832Z,28.07
2019-04-14T06:07:39.754Z,30.83
2019-04-14T06:10:06.556Z,27.23
2019-04-14T06:12:33.139Z,22.20
2019-04-14T06:14:59.730Z,21.80
2019-04-14T06:17:26.356Z,23.10
2019-04-14T06:19:52.943Z,22.50
2019-04-14T06:22:19.557Z,25.03
2019-04-14T06:24:46.159Z,23.10
2019-04-14T06:27:12.751Z,21.90
2019-04-14T06:29:39.331Z,19.93
2019-04-14T06:32:15.700Z,22.53
2019-04-14T06:34:51.145Z,22.40
2019-04-14T06:37:21.891Z,23.13
2019-04-14T06:39:49.812Z,22.43
2019-04-14T06:42:16.421Z,18.00
2019-04-14T06:44:43.086Z,20.70
2019-04-14T06:47:09.661Z,20.60
2019-04-14T06:49:48.213Z,20.30
2019-04-14T06:52:04.818Z,20.80
2019-04-14T06:54:31.428Z,22.67
2019-04-14T06:56:58.000Z,22.43
2019-04-14T06:59:24.857Z,19.73
2019-04-14T07:01:51.452Z,23.17
2019-04-14T07:04:18.069Z,19.60
2019-04-14T07:06:44.683Z,24.73
2019-04-14T07:09:11.613Z,23.93
2019-04-14T07:11:38.167Z,23.20
2019-04-14T07:14:04.892Z,24.40
2019-04-14T07:16:31.748Z,24.33
2019-04-14T07:18:58.327Z,24.67
2019-04-14T07:21:24.927Z,23.70
2019-04-14T07:23:51.581Z,26.33
2019-04-14T07:26:18.192Z,29.70
2019-04-14T07:28:56.209Z,27.10
2019-04-14T07:31:31.623Z,26.03
2019-04-14T07:34:12.582Z,26.10
2019-04-14T07:36:55.511Z,26.13
2019-04-14T07:39:47.743Z,26.20
2019-04-14T07:42:52.101Z,25.13
2019-04-14T07:45:28.817Z,25.33
2019-04-14T07:48:09.996Z,28.30
2019-04-14T07:50:51.309Z,30.50
2019-04-14T07:53:28.902Z,30.60
2019-04-14T07:56:15.227Z,30.97
2019-04-14T07:58:52.492Z,28.63
2019-04-14T08:01:27.245Z,29.10
2019-04-14T08:04:01.534Z,30.03
2019-04-14T08:06:28.224Z,29.07
2019-04-14T08:08:54.969Z,34.17
2019-04-14T08:11:21.601Z,33.50
2019-04-14T08:13:48.280Z,28.87
2019-04-14T08:16:15.128Z,29.97
2019-04-14T08:18:41.712Z,31.70
2019-04-14T08:21:08.308Z,26.20
2019-04-14T08:23:35.197Z,28.13
2019-04-14T08:26:01.907Z,28.77
2019-04-14T08:28:28.662Z,30.53
2019-04-14T08:30:55.452Z,35.67
2019-04-14T08:33:22.284Z,35.63
2019-04-14T08:35:48.876Z,31.30
2019-04-14T08:38:15.496Z,30.50
2019-04-14T08:40:42.348Z,30.00
2019-04-14T08:43:16.615Z,31.60
2019-04-14T08:45:52.121Z,29.30
2019-04-14T08:48:44.523Z,31.50
2019-04-14T08:51:15.758Z,31.83
2019-04-14T08:53:58.404Z,29.70
2019-04-14T08:56:33.016Z,33.00
2019-04-14T08:59:22.422Z,33.73
2019-04-14T09:02:01.824Z,31.73
2019-04-14T09:04:36.272Z,34.17
2019-04-14T09:07:08.932Z,30.30
2019-04-14T09:09:48.416Z,29.83
2019-04-14T09:12:17.607Z,31.10
2019-04-14T09:14:56.395Z,28.40
2019-04-14T09:17:12.753Z,28.77
2019-04-14T09:19:39.449Z,29.63
2019-04-14T09:22:06.160Z,27.63
2019-04-14T09:24:32.800Z,30.33
2019-04-14T09:26:59.427Z,30.07
2019-04-14T09:29:26.132Z,29.70
2019-04-14T09:31:55.804Z,30.40
2019-04-14T09:34:22.485Z,34.93
2019-04-14T09:36:49.086Z,28.90
2019-04-14T09:39:16.189Z,27.77
2019-04-14T09:41:43.104Z,29.13
2019-04-14T09:44:09.732Z,28.57
2019-04-14T09:46:36.382Z,29.17
2019-04-14T09:49:03.104Z,26.87
2019-04-14T09:51:29.900Z,29.20
2019-04-14T09:53:56.908Z,28.60
2019-04-14T09:56:23.532Z,33.53
2019-04-14T09:58:50.123Z,30.30
2019-04-14T10:01:17.065Z,30.47
2019-04-14T10:03:43.656Z,31.67
2019-04-14T10:06:10.284Z,28.57
2019-04-14T10:08:37.075Z,31.23
2019-04-14T10:11:03.837Z,33.70
2019-04-14T10:13:30.415Z,31.43
2019-04-14T10:15:57.092Z,29.57
2019-04-14T10:18:23.780Z,28.50
2019-04-14T10:20:50.405Z,32.30
2019-04-14T10:23:17.141Z,28.00
2019-04-14T10:25:43.765Z,32.37
2019-04-14T10:28:10.483Z,30.10
2019-04-14T10:30:38.694Z,32.17
2019-04-14T10:33:05.324Z,32.20
2019-04-14T10:35:32.077Z,29.17
2019-04-14T10:37:58.923Z,29.60
2019-04-14T10:40:26.087Z,32.70
2019-04-14T10:42:52.780Z,36.33
2019-04-14T10:45:19.581Z,32.20
2019-04-14T10:47:46.315Z,34.03
2019-04-14T10:50:13.140Z,34.20
2019-04-14T10:52:39.924Z,33.83
2019-04-14T10:55:07.464Z,36.60
2019-04-14T10:57:34.323Z,32.20
2019-04-14T11:00:01.757Z,34.07
2019-04-14T11:02:28.584Z,29.70
2019-04-14T11:04:55.448Z,33.13
2019-04-14T11:07:29.428Z,29.70
2019-04-14T11:09:56.132Z,30.37
2019-04-14T11:12:22.871Z,31.90
2019-04-14T11:14:49.509Z,38.43
2019-04-14T11:17:16.168Z,26.80
2019-04-14T11:19:42.920Z,29.40
2019-04-14T11:22:09.635Z,27.23
2019-04-14T11:24:36.232Z,27.30
2019-04-14T11:27:03.071Z,30.00
2019-04-14T11:29:29.789Z,60.83
2019-04-14T11:32:28.168Z,43.20
2019-04-14T11:35:20.669Z,39.87
2019-04-14T11:38:05.736Z,31.73
2019-04-14T11:40:36.967Z,36.50
2019-04-14T11:43:03.825Z,32.87
2019-04-14T11:45:30.677Z,26.60
2019-04-14T11:47:57.409Z,24.67
2019-04-14T11:50:24.053Z,23.73
2019-04-14T11:52:50.723Z,28.13
2019-04-14T11:55:17.388Z,27.70
2019-04-14T11:57:44.138Z,30.73
2019-04-14T12:00:30.766Z,21.53
2019-04-14T12:03:10.520Z,28.73
2019-04-14T12:06:05.954Z,38.23
2019-04-14T12:08:37.936Z,29.27
2019-04-14T12:11:05.415Z,25.77
2019-04-14T12:13:32.114Z,27.13
2019-04-14T12:15:58.811Z,22.57
2019-04-14T12:18:25.635Z,25.00
2019-04-14T12:20:52.406Z,25.20
2019-04-14T12:23:19.021Z,26.83
2019-04-14T12:25:45.732Z,29.50
2019-04-14T12:28:13.523Z,35.33
2019-04-14T12:30:40.407Z,23.13
2019-04-14T12:33:07.060Z,21.13
2019-04-14T12:35:33.663Z,24.27
2019-04-14T12:38:00.264Z,24.70
2019-04-14T12:40:26.908Z,23.60
2019-04-14T12:43:02.669Z,25.33
2019-04-14T12:45:46.273Z,25.80
2019-04-14T12:48:27.504Z,24.50
2019-04-14T12:51:00.783Z,21.20
2019-04-14T12:53:27.405Z,24.17
2019-04-14T12:55:53.999Z,26.60
2019-04-14T12:58:26.215Z,23.07
2019-04-14T13:00:56.774Z,25.03
2019-04-14T13:03:24.404Z,27.97
2019-04-14T13:05:51.187Z,25.47
2019-04-14T13:08:17.783Z,24.70
2019-04-14T13:10:44.512Z,27.90
2019-04-14T13:13:11.142Z,27.07
2019-04-14T13:15:37.734Z,25.83
2019-04-14T13:18:04.608Z,25.40
2019-04-14T13:20:31.352Z,25.83
2019-04-14T13:22:57.932Z,22.13
2019-04-14T13:25:24.519Z,22.37
2019-04-14T13:27:51.247Z,27.57
2019-04-14T13:30:22.534Z,24.83
2019-04-14T13:32:49.276Z,24.47
2019-04-14T13:35:16.137Z,20.83
2019-04-14T13:37:42.773Z,29.07
2019-04-14T13:40:09.891Z,26.50
2019-04-14T13:42:36.511Z,28.47
2019-04-14T13:45:03.786Z,27.23
2019-04-14T13:47:30.367Z,25.27
2019-04-14T13:49:57.015Z,23.40
2019-04-14T13:52:23.632Z,27.37
2019-04-14T13:54:50.288Z,26.63
2019-04-14T13:57:17.118Z,29.77
2019-04-14T13:59:43.782Z,23.50
2019-04-14T14:02:10.368Z,21.37
2019-04-14T14:04:37.278Z,30.23
2019-04-14T14:07:04.895Z,28.93
2019-04-14T14:09:31.528Z,17.93
2019-04-14T14:12:07.067Z,17.17
2019-04-14T14:14:52.108Z,17.87
2019-04-14T14:17:25.516Z,16.10
2019-04-14T14:20:00.538Z,19.90
2019-04-14T14:22:58.794Z,22.03
2019-04-14T14:25:20.378Z,24.67
2019-04-14T14:27:46.972Z,19.17
2019-04-14T14:30:16.284Z,18.57
2019-04-14T14:32:42.904Z,18.43
2019-04-14T14:35:09.659Z,22.40
2019-04-14T14:37:36.318Z,26.50
2019-04-14T14:40:03.997Z,20.63
2019-04-14T14:42:30.628Z,17.43
2019-04-14T14:45:04.131Z,21.20
2019-04-14T14:47:31.581Z,22.90
2019-04-14T14:50:07.671Z,21.60
2019-04-14T14:52:35.431Z,27.93
2019-04-14T14:55:02.060Z,20.23
2019-04-14T14:57:28.689Z,20.03
2019-04-14T14:59:55.410Z,22.23
2019-04-14T15:02:22.600Z,21.50
2019-04-14T15:04:49.487Z,34.57
2019-04-14T15:07:16.075Z,23.40
2019-04-14T15:09:42.985Z,23.40
2019-04-14T15:12:09.622Z,27.67
2019-04-14T15:14:36.208Z,30.30
2019-04-14T15:17:02.899Z,20.90
2019-04-14T15:19:29.517Z,18.43
2019-04-14T15:21:56.133Z,19.23
2019-04-14T15:24:22.760Z,17.77
2019-04-14T15:26:49.360Z,22.13
2019-04-14T15:29:15.951Z,19.33
2019-04-14T15:31:42.524Z,28.10
2019-04-14T15:34:10.674Z,24.03
2019-04-14T15:36:37.708Z,21.93
2019-04-14T15:39:06.960Z,20.83
2019-04-14T15:41:33.807Z,21.23
2019-04-14T15:44:00.430Z,19.10
2019-04-14T15:46:27.011Z,20.37
2019-04-14T15:48:53.644Z,19.00
2019-04-14T15:51:20.269Z,22.27
2019-04-14T15:53:46.853Z,20.47
2019-04-14T15:56:22.443Z,22.20
2019-04-14T15:58:57.925Z,21.87
2019-04-14T16:01:34.645Z,18.63
2019-04-14T16:04:06.461Z,20.17
2019-04-14T16:06:51.569Z,33.40
2019-04-14T16:09:48.068Z,21.20
2019-04-14T16:12:24.786Z,24.57
2019-04-14T16:15:09.775Z,21.63
2019-04-14T16:17:43.411Z,25.83
2019-04-14T16:20:13.815Z,22.60
2019-04-14T16:22:40.474Z,24.77
2019-04-14T16:25:08.156Z,33.50
2019-04-14T16:27:51.945Z,42.23
2019-04-14T16:30:53.977Z,22.40
2019-04-14T16:33:25.405Z,25.83
2019-04-14T16:35:54.936Z,38.40
2019-04-14T16:38:22.891Z,29.43
2019-04-14T16:40:50.041Z,29.47
2019-04-14T16:43:19.745Z,22.93
2019-04-14T16:45:47.318Z,24.20
2019-04-14T16:48:14.303Z,20.13
2019-04-14T16:50:42.995Z,21.83
2019-04-14T16:53:45.759Z,24.07
2019-04-14T16:56:32.374Z,25.00
2019-04-14T16:59:04.088Z,22.00
2019-04-14T17:01:36.791Z,21.37
2019-04-14T17:04:04.170Z,24.13
2019-04-14T17:06:31.365Z,25.83
2019-04-14T17:08:58.150Z,28.23
2019-04-14T17:11:25.686Z,31.17
2019-04-14T17:13:58.948Z,29.20
2019-04-14T17:16:35.957Z,22.80
2019-04-14T17:19:31.265Z,26.93
2019-04-14T17:22:04.977Z,21.70
2019-04-14T17:24:40.912Z,22.67
2019-04-14T17:27:17.876Z,26.40
2019-04-14T17:29:57.557Z,23.00
2019-04-14T17:32:30.519Z,20.60
2019-04-14T17:35:11.020Z,21.17
2019-04-14T17:37:48.077Z,21.43
2019-04-14T17:40:25.061Z,19.80
2019-04-14T17:43:03.586Z,21.63
2019-04-14T17:45:36.075Z,20.20
2019-04-14T17:48:22.664Z,23.87
2019-04-14T17:51:03.149Z,29.60
2019-04-14T17:53:35.138Z,29.40
2019-04-14T17:56:09.804Z,24.47
2019-04-14T17:58:50.480Z,24.40
2019-04-14T18:01:26.547Z,20.70
2019-04-14T18:03:58.163Z,25.00
2019-04-14T18:06:30.074Z,27.77
2019-04-14T18:09:08.889Z,22.37
2019-04-14T18:11:40.626Z,28.10
2019-04-14T18:14:32.821Z,19.60
2019-04-14T18:17:24.888Z,23.77
2019-04-14T18:19:55.623Z,23.77
2019-04-14T18:22:22.207Z,21.47
2019-04-14T18:24:48.812Z,19.93
2019-04-14T18:27:15.428Z,26.63
2019-04-14T18:29:59.479Z,21.27
2019-04-14T18:32:31.074Z,22.60
2019-04-14T18:35:05.522Z,28.83
2019-04-14T18:37:46.539Z,25.37
2019-04-14T18:40:23.460Z,27.53
2019-04-14T18:43:21.761Z,22.43
2019-04-14T18:46:08.425Z,25.10
2019-04-14T18:48:51.108Z,24.67
2019-04-14T18:51:46.660Z,19.60
2019-04-14T18:54:32.494Z,23.17
2019-04-14T18:57:06.043Z,17.00
2019-04-14T18:59:55.321Z,25.97
2019-04-14T19:02:22.052Z,21.57
2019-04-14T19:08:29.560Z,19.57
2019-04-14T19:11:06.401Z,22.93
2019-04-14T19:13:33.361Z,21.97
2019-04-14T19:16:13.763Z,20.70
2019-04-14T19:18:52.274Z,17.87
2019-04-14T19:21:25.001Z,22.87
2019-04-14T19:23:51.608Z,24.77
2019-04-14T19:26:18.280Z,22.97
2019-04-14T19:28:45.124Z,19.50
2019-04-14T19:31:12.165Z,14.33
2019-04-14T19:33:40.207Z,17.43
2019-04-14T19:36:06.906Z,16.70
2019-04-14T19:38:34.169Z,17.07
2019-04-14T19:41:01.323Z,17.10
2019-04-14T19:43:28.581Z,18.83
2019-04-14T19:45:56.638Z,17.07
2019-04-14T19:48:23.736Z,19.33
2019-04-14T19:50:50.322Z,17.87
2019-04-14T19:53:18.014Z,16.90
2019-04-14T19:55:45.211Z,22.93
2019-04-14T19:58:11.913Z,15.97
2019-04-14T20:00:40.156Z,17.87
2019-04-14T20:03:07.979Z,14.87
2019-04-14T20:05:35.215Z,20.30
2019-04-14T20:08:02.816Z,19.30
2019-04-14T20:10:30.630Z,17.10
2019-04-14T20:12:57.768Z,19.80
2019-04-14T20:15:31.094Z,18.63
2019-04-14T20:18:07.831Z,14.90
2019-04-14T20:20:53.917Z,18.20
2019-04-14T20:23:46.926Z,21.30
2019-04-14T20:26:44.755Z,27.90
2019-04-14T20:29:21.812Z,23.27
2019-04-14T20:32:02.520Z,19.97
2019-04-14T20:34:29.563Z,26.67
2019-04-14T20:36:56.814Z,18.70
2019-04-14T20:39:26.042Z,15.23
2019-04-14T20:41:57.774Z,20.13
2019-04-14T20:44:26.021Z,17.67
2019-04-14T20:46:56.094Z,20.53
2019-04-14T20:49:23.452Z,20.90
2019-04-14T20:51:51.144Z,14.20
2019-04-14T20:54:19.164Z,15.83
2019-04-14T20:56:46.082Z,11.67
2019-04-14T20:59:13.008Z,16.57
2019-04-14T21:01:43.757Z,12.00
2019-04-14T21:04:42.985Z,17.93
2019-04-14T21:07:31.691Z,21.00
2019-04-14T21:10:24.244Z,15.90
2019-04-14T21:13:14.401Z,13.90
2019-04-14T21:15:56.142Z,14.10
2019-04-14T21:18:42.491Z,14.33
2019-04-14T21:21:21.727Z,18.03
2019-04-14T21:23:53.675Z,15.63
2019-04-14T21:26:38.827Z,12.93
2019-04-14T21:29:15.104Z,18.40
2019-04-14T21:31:54.553Z,15.90
2019-04-14T21:34:50.056Z,14.30
2019-04-14T21:37:24.532Z,16.20
2019-04-14T21:40:13.389Z,19.47
2019-04-14T21:42:42.129Z,11.00
2019-04-14T21:45:09.792Z,17.60
2019-04-14T21:47:37.289Z,12.57
2019-04-14T21:50:05.180Z,12.53
2019-04-14T21:52:36.290Z,16.13
2019-04-14T21:55:03.582Z,14.57
2019-04-14T21:57:55.795Z,11.27
2019-04-14T22:01:08.341Z,14.80
2019-04-14T22:03:42.728Z,14.90
2019-04-14T22:06:24.176Z,15.27
2019-04-14T22:08:52.121Z,14.97
2019-04-14T22:11:21.426Z,16.63
2019-04-14T22:13:50.766Z,17.17
2019-04-14T22:16:16.736Z,15.17
2019-04-14T22:18:43.487Z,15.77
2019-04-14T22:21:10.284Z,14.53
2019-04-14T22:23:37.088Z,18.40
2019-04-14T22:26:04.313Z,9.70
2019-04-14T22:28:31.131Z,14.37
2019-04-14T22:30:58.169Z,13.70
2019-04-14T22:33:24.848Z,14.27
2019-04-14T22:35:51.565Z,16.87
2019-04-14T22:38:18.310Z,19.33
2019-04-14T22:40:45.274Z,15.80
2019-04-14T22:43:12.080Z,13.53
2019-04-14T22:45:38.953Z,12.57
2019-04-14T22:48:05.672Z,12.27
2019-04-14T22:50:32.401Z,15.70
2019-04-14T22:52:59.049Z,11.90
2019-04-14T22:55:25.624Z,12.20
2019-04-14T22:57:52.208Z,11.97
2019-04-14T23:00:49.896Z,12.00
2019-04-14T23:03:42.026Z,12.53
2019-04-14T23:06:27.169Z,11.87
2019-04-14T23:08:58.586Z,15.00
2019-04-14T23:11:38.625Z,13.00
2019-04-14T23:14:25.652Z,15.33
2019-04-14T23:17:12.660Z,13.23
2019-04-14T23:19:44.127Z,17.50
2019-04-14T23:22:24.300Z,14.27
2019-04-14T23:24:50.956Z,14.63
2019-04-14T23:27:17.777Z,14.50
2019-04-14T23:29:44.360Z,13.07
2019-04-14T23:32:11.009Z,15.10
2019-04-14T23:34:37.614Z,10.40
2019-04-14T23:37:04.207Z,11.73
2019-04-14T23:39:30.847Z,14.20
2019-04-14T23:41:57.741Z,9.70
2019-04-14T23:44:24.331Z,16.10
2019-04-14T23:46:50.956Z,11.50
2019-04-14T23:49:17.566Z,16.50
2019-04-14T23:51:45.255Z,15.90
2019-04-14T23:54:11.840Z,13.07
2019-04-14T23:56:38.530Z,16.20
2019-04-14T23:59:05.172Z,12.77
